sensor_id;sensor_type;location;lat;lon;timestamp;P1;durP1;ratioP1;P2;durP2;ratioP2
24273;SDS011;12392;42.678;23.380;2023-04-03T00:01:28;12.55;;;6.93;;
24273;SDS011;12392;42.678;23.380;2023-04-03T00:03:54;14.65;;;7.50;;
24273;SDS011;12392;42.678;23.380;2023-04-03T00:06:20;18.05;;;7.18;;
24273;SDS011;12392;42.678;23.380;2023-04-03T00:08:46;15.20;;;6.57;;
24273;SDS011;12392;42.678;23.380;2023-04-03T00:11:12;18.13;;;7.25;;
24273;SDS011;12392;42.678;23.380;2023-04-03T00:13:38;25.10;;;6.35;;
24273;SDS011;12392;42.678;23.380;2023-04-03T00:16:04;14.75;;;6.97;;
24273;SDS011;12392;42.678;23.380;2023-04-03T00:18:31;15.68;;;6.85;;
24273;SDS011;12392;42.678;23.380;2023-04-03T00:20:56;14.60;;;6.63;;
24273;SDS011;12392;42.678;23.380;2023-04-03T00:23:22;13.93;;;6.75;;
24273;SDS011;12392;42.678;23.380;2023-04-03T00:25:51;14.48;;;6.82;;
24273;SDS011;12392;42.678;23.380;2023-04-03T00:28:17;15.40;;;6.65;;
24273;SDS011;12392;42.678;23.380;2023-04-03T00:30:43;13.25;;;6.90;;
24273;SDS011;12392;42.678;23.380;2023-04-03T00:33:11;10.32;;;6.55;;
24273;SDS011;12392;42.678;23.380;2023-04-03T00:35:37;15.57;;;6.47;;
24273;SDS011;12392;42.678;23.380;2023-04-03T00:38:03;14.18;;;6.28;;
24273;SDS011;12392;42.678;23.380;2023-04-03T00:40:32;12.02;;;6.68;;
24273;SDS011;12392;42.678;23.380;2023-04-03T00:43:04;13.75;;;6.35;;
24273;SDS011;12392;42.678;23.380;2023-04-03T00:45:37;11.52;;;5.38;;
24273;SDS011;12392;42.678;23.380;2023-04-03T00:48:06;16.15;;;6.75;;
24273;SDS011;12392;42.678;23.380;2023-04-03T00:50:34;14.95;;;5.63;;
24273;SDS011;12392;42.678;23.380;2023-04-03T00:53:02;12.18;;;4.65;;
24273;SDS011;12392;42.678;23.380;2023-04-03T00:55:29;13.07;;;5.18;;
24273;SDS011;12392;42.678;23.380;2023-04-03T00:57:55;11.38;;;5.93;;
24273;SDS011;12392;42.678;23.380;2023-04-03T01:00:22;12.52;;;5.22;;
24273;SDS011;12392;42.678;23.380;2023-04-03T01:02:49;14.90;;;5.05;;
24273;SDS011;12392;42.678;23.380;2023-04-03T01:05:15;13.07;;;4.78;;
24273;SDS011;12392;42.678;23.380;2023-04-03T01:07:42;12.05;;;5.85;;
24273;SDS011;12392;42.678;23.380;2023-04-03T01:10:09;13.85;;;6.45;;
24273;SDS011;12392;42.678;23.380;2023-04-03T01:12:39;13.80;;;6.60;;
24273;SDS011;12392;42.678;23.380;2023-04-03T01:15:07;11.95;;;6.63;;
24273;SDS011;12392;42.678;23.380;2023-04-03T01:25:35;26.75;;;12.50;;
24273;SDS011;12392;42.678;23.380;2023-04-03T01:28:02;35.92;;;13.60;;
24273;SDS011;12392;42.678;23.380;2023-04-03T01:30:33;38.10;;;16.88;;
24273;SDS011;12392;42.678;23.380;2023-04-03T01:33:00;42.20;;;16.35;;
24273;SDS011;12392;42.678;23.380;2023-04-03T01:35:26;42.33;;;16.90;;
24273;SDS011;12392;42.678;23.380;2023-04-03T01:37:51;35.75;;;15.57;;
24273;SDS011;12392;42.678;23.380;2023-04-03T01:40:17;49.92;;;18.73;;
24273;SDS011;12392;42.678;23.380;2023-04-03T01:42:43;47.42;;;19.73;;
24273;SDS011;12392;42.678;23.380;2023-04-03T01:45:09;51.75;;;19.88;;
24273;SDS011;12392;42.678;23.380;2023-04-03T01:47:34;29.25;;;12.68;;
24273;SDS011;12392;42.678;23.380;2023-04-03T01:50:00;26.63;;;10.77;;
24273;SDS011;12392;42.678;23.380;2023-04-03T01:52:26;22.80;;;10.27;;
24273;SDS011;12392;42.678;23.380;2023-04-03T01:54:52;29.05;;;11.02;;
24273;SDS011;12392;42.678;23.380;2023-04-03T01:57:17;26.23;;;10.40;;
24273;SDS011;12392;42.678;23.380;2023-04-03T01:59:43;13.68;;;5.63;;
24273;SDS011;12392;42.678;23.380;2023-04-03T02:02:09;16.27;;;6.35;;
24273;SDS011;12392;42.678;23.380;2023-04-03T02:04:37;19.63;;;7.15;;
24273;SDS011;12392;42.678;23.380;2023-04-03T02:07:03;12.82;;;6.45;;
24273;SDS011;12392;42.678;23.380;2023-04-03T02:09:29;17.75;;;6.40;;
24273;SDS011;12392;42.678;23.380;2023-04-03T02:11:54;13.77;;;5.57;;
24273;SDS011;12392;42.678;23.380;2023-04-03T02:14:20;12.80;;;6.05;;
24273;SDS011;12392;42.678;23.380;2023-04-03T02:16:48;13.90;;;5.60;;
24273;SDS011;12392;42.678;23.380;2023-04-03T02:19:14;10.15;;;4.90;;
24273;SDS011;12392;42.678;23.380;2023-04-03T02:21:40;13.93;;;5.40;;
24273;SDS011;12392;42.678;23.380;2023-04-03T02:24:06;9.55;;;4.47;;
24273;SDS011;12392;42.678;23.380;2023-04-03T02:26:31;13.80;;;5.90;;
24273;SDS011;12392;42.678;23.380;2023-04-03T02:28:57;11.70;;;5.57;;
24273;SDS011;12392;42.678;23.380;2023-04-03T02:31:23;12.32;;;6.50;;
24273;SDS011;12392;42.678;23.380;2023-04-03T02:33:49;15.77;;;5.97;;
24273;SDS011;12392;42.678;23.380;2023-04-03T02:36:15;9.57;;;5.47;;
24273;SDS011;12392;42.678;23.380;2023-04-03T02:38:41;18.80;;;6.25;;
24273;SDS011;12392;42.678;23.380;2023-04-03T02:41:09;14.18;;;5.40;;
24273;SDS011;12392;42.678;23.380;2023-04-03T02:43:36;16.00;;;5.55;;
24273;SDS011;12392;42.678;23.380;2023-04-03T02:46:02;12.43;;;4.88;;
24273;SDS011;12392;42.678;23.380;2023-04-03T02:48:29;16.95;;;5.15;;
24273;SDS011;12392;42.678;23.380;2023-04-03T02:50:55;15.30;;;5.55;;
24273;SDS011;12392;42.678;23.380;2023-04-03T02:53:20;11.05;;;5.07;;
24273;SDS011;12392;42.678;23.380;2023-04-03T02:55:46;13.90;;;4.82;;
24273;SDS011;12392;42.678;23.380;2023-04-03T02:58:12;11.85;;;4.70;;
24273;SDS011;12392;42.678;23.380;2023-04-03T03:00:38;12.45;;;4.78;;
24273;SDS011;12392;42.678;23.380;2023-04-03T03:03:04;13.35;;;4.47;;
24273;SDS011;12392;42.678;23.380;2023-04-03T03:05:30;13.73;;;4.80;;
24273;SDS011;12392;42.678;23.380;2023-04-03T03:07:55;14.00;;;4.70;;
24273;SDS011;12392;42.678;23.380;2023-04-03T03:10:21;12.77;;;4.13;;
24273;SDS011;12392;42.678;23.380;2023-04-03T03:12:47;11.65;;;4.75;;
24273;SDS011;12392;42.678;23.380;2023-04-03T03:15:13;10.32;;;4.97;;
24273;SDS011;12392;42.678;23.380;2023-04-03T03:17:40;11.43;;;4.82;;
24273;SDS011;12392;42.678;23.380;2023-04-03T03:20:06;13.60;;;4.43;;
24273;SDS011;12392;42.678;23.380;2023-04-03T03:22:33;10.57;;;5.32;;
24273;SDS011;12392;42.678;23.380;2023-04-03T03:24:59;16.20;;;4.88;;
24273;SDS011;12392;42.678;23.380;2023-04-03T03:27:25;13.82;;;5.18;;
24273;SDS011;12392;42.678;23.380;2023-04-03T03:29:51;11.88;;;4.80;;
24273;SDS011;12392;42.678;23.380;2023-04-03T03:32:17;12.75;;;5.15;;
24273;SDS011;12392;42.678;23.380;2023-04-03T03:34:42;15.68;;;7.18;;
24273;SDS011;12392;42.678;23.380;2023-04-03T03:37:08;16.67;;;5.95;;
24273;SDS011;12392;42.678;23.380;2023-04-03T03:39:34;16.90;;;5.65;;
24273;SDS011;12392;42.678;23.380;2023-04-03T03:42:00;12.00;;;5.57;;
24273;SDS011;12392;42.678;23.380;2023-04-03T03:44:25;10.60;;;5.60;;
24273;SDS011;12392;42.678;23.380;2023-04-03T03:46:52;9.18;;;5.82;;
24273;SDS011;12392;42.678;23.380;2023-04-03T03:49:18;11.80;;;6.00;;
24273;SDS011;12392;42.678;23.380;2023-04-03T03:51:44;15.68;;;6.50;;
24273;SDS011;12392;42.678;23.380;2023-04-03T03:54:10;19.08;;;9.00;;
24273;SDS011;12392;42.678;23.380;2023-04-03T03:56:36;22.98;;;9.68;;
24273;SDS011;12392;42.678;23.380;2023-04-03T03:59:01;20.33;;;10.05;;
24273;SDS011;12392;42.678;23.380;2023-04-03T04:01:27;20.63;;;8.45;;
24273;SDS011;12392;42.678;23.380;2023-04-03T04:03:53;14.68;;;7.28;;
24273;SDS011;12392;42.678;23.380;2023-04-03T04:06:19;26.52;;;10.43;;
24273;SDS011;12392;42.678;23.380;2023-04-03T04:08:46;28.70;;;11.80;;
24273;SDS011;12392;42.678;23.380;2023-04-03T04:11:12;32.50;;;13.55;;
24273;SDS011;12392;42.678;23.380;2023-04-03T04:13:37;31.40;;;12.13;;
24273;SDS011;12392;42.678;23.380;2023-04-03T04:16:03;42.60;;;16.30;;
24273;SDS011;12392;42.678;23.380;2023-04-03T04:18:29;84.60;;;29.35;;
24273;SDS011;12392;42.678;23.380;2023-04-03T04:20:55;57.38;;;20.65;;
24273;SDS011;12392;42.678;23.380;2023-04-03T04:23:20;43.88;;;17.38;;
24273;SDS011;12392;42.678;23.380;2023-04-03T04:25:49;44.53;;;18.65;;
24273;SDS011;12392;42.678;23.380;2023-04-03T04:28:15;36.08;;;15.77;;
24273;SDS011;12392;42.678;23.380;2023-04-03T04:30:41;31.35;;;12.82;;
24273;SDS011;12392;42.678;23.380;2023-04-03T04:33:06;22.88;;;10.18;;
24273;SDS011;12392;42.678;23.380;2023-04-03T04:35:32;17.33;;;8.23;;
24273;SDS011;12392;42.678;23.380;2023-04-03T04:37:58;22.55;;;10.18;;
24273;SDS011;12392;42.678;23.380;2023-04-03T04:40:25;20.05;;;9.23;;
24273;SDS011;12392;42.678;23.380;2023-04-03T04:42:50;21.42;;;10.55;;
24273;SDS011;12392;42.678;23.380;2023-04-03T04:45:16;17.70;;;7.38;;
24273;SDS011;12392;42.678;23.380;2023-04-03T04:47:42;15.88;;;8.05;;
24273;SDS011;12392;42.678;23.380;2023-04-03T04:50:08;20.65;;;10.90;;
24273;SDS011;12392;42.678;23.380;2023-04-03T04:52:34;14.52;;;7.28;;
24273;SDS011;12392;42.678;23.380;2023-04-03T04:55:00;15.40;;;7.93;;
24273;SDS011;12392;42.678;23.380;2023-04-03T04:57:26;18.38;;;7.47;;
24273;SDS011;12392;42.678;23.380;2023-04-03T04:59:52;12.77;;;6.50;;
24273;SDS011;12392;42.678;23.380;2023-04-03T05:02:17;12.40;;;7.10;;
24273;SDS011;12392;42.678;23.380;2023-04-03T05:04:43;19.67;;;8.10;;
24273;SDS011;12392;42.678;23.380;2023-04-03T05:07:09;14.70;;;8.18;;
24273;SDS011;12392;42.678;23.380;2023-04-03T05:09:35;16.20;;;8.30;;
24273;SDS011;12392;42.678;23.380;2023-04-03T05:12:01;19.80;;;8.00;;
24273;SDS011;12392;42.678;23.380;2023-04-03T05:14:28;21.20;;;7.70;;
24273;SDS011;12392;42.678;23.380;2023-04-03T05:16:53;16.63;;;7.82;;
24273;SDS011;12392;42.678;23.380;2023-04-03T05:19:22;17.40;;;7.13;;
24273;SDS011;12392;42.678;23.380;2023-04-03T05:21:48;19.70;;;8.20;;
24273;SDS011;12392;42.678;23.380;2023-04-03T05:24:14;15.75;;;8.32;;
24273;SDS011;12392;42.678;23.380;2023-04-03T05:26:41;24.35;;;8.57;;
24273;SDS011;12392;42.678;23.380;2023-04-03T05:29:07;20.25;;;7.60;;
24273;SDS011;12392;42.678;23.380;2023-04-03T05:31:33;18.02;;;8.57;;
24273;SDS011;12392;42.678;23.380;2023-04-03T05:33:58;19.52;;;8.75;;
24273;SDS011;12392;42.678;23.380;2023-04-03T05:36:24;19.70;;;8.55;;
24273;SDS011;12392;42.678;23.380;2023-04-03T05:38:50;29.15;;;8.77;;
24273;SDS011;12392;42.678;23.380;2023-04-03T05:41:17;11.15;;;6.20;;
24273;SDS011;12392;42.678;23.380;2023-04-03T05:43:42;23.13;;;6.95;;
24273;SDS011;12392;42.678;23.380;2023-04-03T05:46:11;28.55;;;9.38;;
24273;SDS011;12392;42.678;23.380;2023-04-03T05:48:38;34.42;;;12.73;;
24273;SDS011;12392;42.678;23.380;2023-04-03T05:51:04;49.35;;;18.23;;
24273;SDS011;12392;42.678;23.380;2023-04-03T05:53:31;58.95;;;23.58;;
24273;SDS011;12392;42.678;23.380;2023-04-03T05:55:58;55.78;;;24.27;;
24273;SDS011;12392;42.678;23.380;2023-04-03T05:58:24;49.45;;;22.77;;
24273;SDS011;12392;42.678;23.380;2023-04-03T06:00:49;52.63;;;28.95;;
24273;SDS011;12392;42.678;23.380;2023-04-03T06:03:15;64.15;;;36.42;;
24273;SDS011;12392;42.678;23.380;2023-04-03T06:05:41;81.90;;;49.90;;
24273;SDS011;12392;42.678;23.380;2023-04-03T06:08:07;69.30;;;38.63;;
24273;SDS011;12392;42.678;23.380;2023-04-03T06:10:34;69.97;;;40.35;;
24273;SDS011;12392;42.678;23.380;2023-04-03T06:13:00;50.47;;;28.17;;
24273;SDS011;12392;42.678;23.380;2023-04-03T06:15:26;40.58;;;20.67;;
24273;SDS011;12392;42.678;23.380;2023-04-03T06:17:53;33.05;;;16.17;;
24273;SDS011;12392;42.678;23.380;2023-04-03T06:20:19;28.52;;;13.98;;
24273;SDS011;12392;42.678;23.380;2023-04-03T06:22:44;32.35;;;11.93;;
24273;SDS011;12392;42.678;23.380;2023-04-03T06:25:11;21.42;;;12.10;;
24273;SDS011;12392;42.678;23.380;2023-04-03T06:27:37;24.63;;;10.50;;
24273;SDS011;12392;42.678;23.380;2023-04-03T06:30:03;20.73;;;8.30;;
24273;SDS011;12392;42.678;23.380;2023-04-03T06:32:30;25.92;;;9.13;;
24273;SDS011;12392;42.678;23.380;2023-04-03T06:34:56;17.90;;;8.57;;
24273;SDS011;12392;42.678;23.380;2023-04-03T06:37:22;18.17;;;8.77;;
24273;SDS011;12392;42.678;23.380;2023-04-03T06:39:51;22.15;;;10.15;;
24273;SDS011;12392;42.678;23.380;2023-04-03T06:42:23;21.20;;;9.30;;
24273;SDS011;12392;42.678;23.380;2023-04-03T06:44:50;17.20;;;8.57;;
24273;SDS011;12392;42.678;23.380;2023-04-03T06:47:16;17.15;;;7.65;;
24273;SDS011;12392;42.678;23.380;2023-04-03T06:49:42;19.52;;;9.20;;
24273;SDS011;12392;42.678;23.380;2023-04-03T06:52:08;16.38;;;8.02;;
24273;SDS011;12392;42.678;23.380;2023-04-03T06:54:35;18.20;;;7.93;;
24273;SDS011;12392;42.678;23.380;2023-04-03T06:57:00;15.82;;;8.18;;
24273;SDS011;12392;42.678;23.380;2023-04-03T06:59:27;21.02;;;7.88;;
24273;SDS011;12392;42.678;23.380;2023-04-03T07:01:53;17.20;;;7.60;;
24273;SDS011;12392;42.678;23.380;2023-04-03T07:04:18;17.08;;;8.50;;
24273;SDS011;12392;42.678;23.380;2023-04-03T07:06:47;17.10;;;7.45;;
24273;SDS011;12392;42.678;23.380;2023-04-03T07:09:14;19.45;;;8.52;;
24273;SDS011;12392;42.678;23.380;2023-04-03T07:11:40;20.50;;;8.95;;
24273;SDS011;12392;42.678;23.380;2023-04-03T07:14:05;23.45;;;8.40;;
24273;SDS011;12392;42.678;23.380;2023-04-03T07:16:33;11.75;;;7.00;;
24273;SDS011;12392;42.678;23.380;2023-04-03T07:18:59;18.52;;;8.07;;
24273;SDS011;12392;42.678;23.380;2023-04-03T07:21:26;26.35;;;9.27;;
24273;SDS011;12392;42.678;23.380;2023-04-03T07:23:52;17.35;;;8.45;;
24273;SDS011;12392;42.678;23.380;2023-04-03T07:26:18;18.05;;;9.77;;
24273;SDS011;12392;42.678;23.380;2023-04-03T07:28:45;17.75;;;9.68;;
24273;SDS011;12392;42.678;23.380;2023-04-03T07:31:13;21.88;;;10.98;;
24273;SDS011;12392;42.678;23.380;2023-04-03T07:33:40;31.75;;;13.55;;
24273;SDS011;12392;42.678;23.380;2023-04-03T07:36:06;23.48;;;12.80;;
24273;SDS011;12392;42.678;23.380;2023-04-03T07:38:33;23.58;;;12.05;;
24273;SDS011;12392;42.678;23.380;2023-04-03T07:40:59;22.50;;;11.60;;
24273;SDS011;12392;42.678;23.380;2023-04-03T07:43:25;28.40;;;14.63;;
24273;SDS011;12392;42.678;23.380;2023-04-03T07:45:51;27.20;;;13.77;;
24273;SDS011;12392;42.678;23.380;2023-04-03T07:48:18;27.98;;;12.98;;
24273;SDS011;12392;42.678;23.380;2023-04-03T07:50:45;27.75;;;13.30;;
24273;SDS011;12392;42.678;23.380;2023-04-03T07:53:11;23.05;;;12.40;;
24273;SDS011;12392;42.678;23.380;2023-04-03T07:55:38;20.80;;;10.98;;
24273;SDS011;12392;42.678;23.380;2023-04-03T07:58:11;24.80;;;10.25;;
24273;SDS011;12392;42.678;23.380;2023-04-03T08:00:39;16.58;;;9.70;;
24273;SDS011;12392;42.678;23.380;2023-04-03T08:03:05;17.70;;;8.50;;
24273;SDS011;12392;42.678;23.380;2023-04-03T08:05:34;17.50;;;8.80;;
24273;SDS011;12392;42.678;23.380;2023-04-03T08:08:02;18.38;;;8.27;;
24273;SDS011;12392;42.678;23.380;2023-04-03T08:10:29;14.85;;;8.60;;
24273;SDS011;12392;42.678;23.380;2023-04-03T08:12:56;17.98;;;10.15;;
24273;SDS011;12392;42.678;23.380;2023-04-03T08:15:22;17.63;;;9.43;;
24273;SDS011;12392;42.678;23.380;2023-04-03T08:17:48;29.77;;;8.90;;
24273;SDS011;12392;42.678;23.380;2023-04-03T08:20:13;19.50;;;9.40;;
24273;SDS011;12392;42.678;23.380;2023-04-03T08:22:39;20.85;;;8.73;;
24273;SDS011;12392;42.678;23.380;2023-04-03T08:25:05;14.77;;;7.85;;
24273;SDS011;12392;42.678;23.380;2023-04-03T08:27:31;31.10;;;8.90;;
24273;SDS011;12392;42.678;23.380;2023-04-03T08:29:57;17.38;;;8.50;;
24273;SDS011;12392;42.678;23.380;2023-04-03T08:32:23;16.65;;;8.25;;
24273;SDS011;12392;42.678;23.380;2023-04-03T08:34:49;13.57;;;8.30;;
24273;SDS011;12392;42.678;23.380;2023-04-03T08:37:15;15.52;;;8.50;;
24273;SDS011;12392;42.678;23.380;2023-04-03T08:39:41;18.35;;;7.97;;
24273;SDS011;12392;42.678;23.380;2023-04-03T08:48:07;15.45;;;8.27;;
24273;SDS011;12392;42.678;23.380;2023-04-03T08:50:41;13.23;;;8.13;;
24273;SDS011;12392;42.678;23.380;2023-04-03T08:53:14;16.10;;;9.48;;
24273;SDS011;12392;42.678;23.380;2023-04-03T08:55:48;21.85;;;13.18;;
24273;SDS011;12392;42.678;23.380;2023-04-03T08:58:19;18.45;;;10.23;;
24273;SDS011;12392;42.678;23.380;2023-04-03T09:00:47;20.15;;;8.35;;
24273;SDS011;12392;42.678;23.380;2023-04-03T09:03:20;14.55;;;8.60;;
24273;SDS011;12392;42.678;23.380;2023-04-03T09:08:31;18.70;;;8.70;;
24273;SDS011;12392;42.678;23.380;2023-04-03T09:13:59;19.27;;;9.40;;
24273;SDS011;12392;42.678;23.380;2023-04-03T09:19:26;27.80;;;9.40;;
24273;SDS011;12392;42.678;23.380;2023-04-03T09:22:18;14.48;;;9.50;;
24273;SDS011;12392;42.678;23.380;2023-04-03T09:24:45;17.42;;;7.85;;
24273;SDS011;12392;42.678;23.380;2023-04-03T09:27:12;10.32;;;7.13;;
24273;SDS011;12392;42.678;23.380;2023-04-03T09:29:41;18.17;;;8.18;;
24273;SDS011;12392;42.678;23.380;2023-04-03T09:32:24;17.35;;;7.20;;
24273;SDS011;12392;42.678;23.380;2023-04-03T09:34:57;14.27;;;7.07;;
24273;SDS011;12392;42.678;23.380;2023-04-03T09:40:04;14.40;;;6.50;;
24273;SDS011;12392;42.678;23.380;2023-04-03T09:42:31;17.30;;;6.60;;
24273;SDS011;12392;42.678;23.380;2023-04-03T09:44:58;15.38;;;6.43;;
24273;SDS011;12392;42.678;23.380;2023-04-03T09:52:42;9.02;;;5.53;;
24273;SDS011;12392;42.678;23.380;2023-04-03T09:57:40;15.07;;;7.05;;
24273;SDS011;12392;42.678;23.380;2023-04-03T10:00:10;24.30;;;7.07;;
24273;SDS011;12392;42.678;23.380;2023-04-03T10:02:46;20.88;;;6.65;;
24273;SDS011;12392;42.678;23.380;2023-04-03T10:08:06;17.42;;;6.57;;
24273;SDS011;12392;42.678;23.380;2023-04-03T10:10:33;14.02;;;5.55;;
24273;SDS011;12392;42.678;23.380;2023-04-03T10:15:46;10.68;;;5.35;;
24273;SDS011;12392;42.678;23.380;2023-04-03T10:21:14;11.93;;;5.38;;
24273;SDS011;12392;42.678;23.380;2023-04-03T10:35:00;9.18;;;5.88;;
24273;SDS011;12392;42.678;23.380;2023-04-03T10:40:51;15.52;;;4.95;;
24273;SDS011;12392;42.678;23.380;2023-04-03T10:46:06;14.63;;;4.30;;
24273;SDS011;12392;42.678;23.380;2023-04-03T10:48:53;8.95;;;3.53;;
24273;SDS011;12392;42.678;23.380;2023-04-03T10:54:29;6.03;;;3.25;;
24273;SDS011;12392;42.678;23.380;2023-04-03T10:56:57;5.05;;;3.00;;
24273;SDS011;12392;42.678;23.380;2023-04-03T10:59:31;5.10;;;2.90;;
24273;SDS011;12392;42.678;23.380;2023-04-03T11:02:16;7.07;;;3.35;;
24273;SDS011;12392;42.678;23.380;2023-04-03T11:04:44;5.03;;;3.25;;
24273;SDS011;12392;42.678;23.380;2023-04-03T11:07:20;4.10;;;2.38;;
24273;SDS011;12392;42.678;23.380;2023-04-03T11:09:48;4.20;;;2.45;;
24273;SDS011;12392;42.678;23.380;2023-04-03T11:15:04;3.95;;;2.60;;
24273;SDS011;12392;42.678;23.380;2023-04-03T11:17:33;3.67;;;2.40;;
24273;SDS011;12392;42.678;23.380;2023-04-03T11:20:20;3.97;;;2.43;;
24273;SDS011;12392;42.678;23.380;2023-04-03T11:25:40;2.75;;;2.10;;
24273;SDS011;12392;42.678;23.380;2023-04-03T11:28:14;4.63;;;1.95;;
24273;SDS011;12392;42.678;23.380;2023-04-03T11:33:42;5.60;;;2.15;;
24273;SDS011;12392;42.678;23.380;2023-04-03T11:36:28;2.58;;;1.90;;
24273;SDS011;12392;42.678;23.380;2023-04-03T11:39:00;4.03;;;2.33;;
24273;SDS011;12392;42.678;23.380;2023-04-03T11:41:31;2.63;;;1.58;;
24273;SDS011;12392;42.678;23.380;2023-04-03T11:46:48;3.58;;;1.88;;
24273;SDS011;12392;42.678;23.380;2023-04-03T12:19:02;4.90;;;2.20;;
24273;SDS011;12392;42.678;23.380;2023-04-03T12:29:43;3.90;;;2.22;;
24273;SDS011;12392;42.678;23.380;2023-04-03T12:37:56;3.47;;;1.95;;
24273;SDS011;12392;42.678;23.380;2023-04-03T12:59:40;5.43;;;3.50;;
24273;SDS011;12392;42.678;23.380;2023-04-03T13:02:23;6.60;;;3.38;;
24273;SDS011;12392;42.678;23.380;2023-04-03T13:04:49;5.03;;;2.95;;
24273;SDS011;12392;42.678;23.380;2023-04-03T13:07:24;8.55;;;3.40;;
24273;SDS011;12392;42.678;23.380;2023-04-03T13:12:28;6.30;;;3.25;;
24273;SDS011;12392;42.678;23.380;2023-04-03T13:14:55;6.30;;;3.70;;
24273;SDS011;12392;42.678;23.380;2023-04-03T13:17:23;8.02;;;3.75;;
24273;SDS011;12392;42.678;23.380;2023-04-03T13:19:52;6.80;;;4.38;;
24273;SDS011;12392;42.678;23.380;2023-04-03T13:24:59;5.35;;;4.00;;
24273;SDS011;12392;42.678;23.380;2023-04-03T13:27:34;9.77;;;4.55;;
24273;SDS011;12392;42.678;23.380;2023-04-03T13:32:53;8.05;;;4.55;;
24273;SDS011;12392;42.678;23.380;2023-04-03T13:35:30;4.45;;;3.67;;
24273;SDS011;12392;42.678;23.380;2023-04-03T13:38:25;5.78;;;3.85;;
24273;SDS011;12392;42.678;23.380;2023-04-03T13:40:52;6.47;;;4.45;;
24273;SDS011;12392;42.678;23.380;2023-04-03T13:43:26;5.63;;;4.30;;
24273;SDS011;12392;42.678;23.380;2023-04-03T13:45:58;6.43;;;4.35;;
24273;SDS011;12392;42.678;23.380;2023-04-03T13:48:51;7.13;;;4.80;;
24273;SDS011;12392;42.678;23.380;2023-04-03T13:51:19;7.43;;;5.32;;
24273;SDS011;12392;42.678;23.380;2023-04-03T13:53:55;8.77;;;5.57;;
24273;SDS011;12392;42.678;23.380;2023-04-03T13:59:00;11.10;;;6.28;;
24273;SDS011;12392;42.678;23.380;2023-04-03T14:04:20;8.40;;;5.57;;
24273;SDS011;12392;42.678;23.380;2023-04-03T14:06:48;8.68;;;5.63;;
24273;SDS011;12392;42.678;23.380;2023-04-03T14:09:15;8.13;;;4.75;;
24273;SDS011;12392;42.678;23.380;2023-04-03T14:11:41;8.02;;;4.88;;
24273;SDS011;12392;42.678;23.380;2023-04-03T14:14:12;9.30;;;5.00;;
24273;SDS011;12392;42.678;23.380;2023-04-03T14:16:47;8.90;;;5.05;;
24273;SDS011;12392;42.678;23.380;2023-04-03T14:19:51;7.07;;;4.90;;
24273;SDS011;12392;42.678;23.380;2023-04-03T14:22:17;7.37;;;4.57;;
24273;SDS011;12392;42.678;23.380;2023-04-03T14:24:43;7.68;;;5.38;;
24273;SDS011;12392;42.678;23.380;2023-04-03T14:27:20;8.23;;;4.95;;
24273;SDS011;12392;42.678;23.380;2023-04-03T14:29:48;8.85;;;5.35;;
24273;SDS011;12392;42.678;23.380;2023-04-03T14:32:15;7.20;;;4.97;;
24273;SDS011;12392;42.678;23.380;2023-04-03T14:34:42;6.63;;;4.32;;
24273;SDS011;12392;42.678;23.380;2023-04-03T14:37:10;7.05;;;4.53;;
24273;SDS011;12392;42.678;23.380;2023-04-03T14:39:37;9.07;;;4.70;;
24273;SDS011;12392;42.678;23.380;2023-04-03T14:42:03;7.35;;;4.07;;
24273;SDS011;12392;42.678;23.380;2023-04-03T14:44:29;5.93;;;4.18;;
24273;SDS011;12392;42.678;23.380;2023-04-03T14:46:55;5.30;;;4.10;;
24273;SDS011;12392;42.678;23.380;2023-04-03T14:49:23;6.07;;;3.83;;
24273;SDS011;12392;42.678;23.380;2023-04-03T14:51:51;10.60;;;3.85;;
24273;SDS011;12392;42.678;23.380;2023-04-03T14:54:19;4.03;;;3.13;;
24273;SDS011;12392;42.678;23.380;2023-04-03T14:56:50;5.80;;;3.45;;
24273;SDS011;12392;42.678;23.380;2023-04-03T14:59:16;7.82;;;3.40;;
24273;SDS011;12392;42.678;23.380;2023-04-03T15:01:45;2.75;;;2.38;;
24273;SDS011;12392;42.678;23.380;2023-04-03T15:04:18;3.53;;;2.92;;
24273;SDS011;12392;42.678;23.380;2023-04-03T15:06:47;4.80;;;3.17;;
24273;SDS011;12392;42.678;23.380;2023-04-03T15:09:21;3.25;;;2.33;;
24273;SDS011;12392;42.678;23.380;2023-04-03T15:11:49;3.28;;;2.70;;
24273;SDS011;12392;42.678;23.380;2023-04-03T15:14:15;3.42;;;2.10;;
24273;SDS011;12392;42.678;23.380;2023-04-03T15:16:41;3.00;;;2.33;;
24273;SDS011;12392;42.678;23.380;2023-04-03T15:19:07;3.05;;;2.13;;
24273;SDS011;12392;42.678;23.380;2023-04-03T15:21:32;3.47;;;2.60;;
24273;SDS011;12392;42.678;23.380;2023-04-03T15:23:58;4.70;;;2.85;;
24273;SDS011;12392;42.678;23.380;2023-04-03T15:26:24;4.30;;;2.78;;
24273;SDS011;12392;42.678;23.380;2023-04-03T15:28:50;4.30;;;2.90;;
24273;SDS011;12392;42.678;23.380;2023-04-03T15:31:15;3.28;;;2.58;;
24273;SDS011;12392;42.678;23.380;2023-04-03T15:33:41;4.40;;;2.67;;
24273;SDS011;12392;42.678;23.380;2023-04-03T15:36:07;5.15;;;3.50;;
24273;SDS011;12392;42.678;23.380;2023-04-03T15:38:33;5.88;;;2.78;;
24273;SDS011;12392;42.678;23.380;2023-04-03T15:40:59;4.60;;;3.38;;
24273;SDS011;12392;42.678;23.380;2023-04-03T15:43:25;4.85;;;3.40;;
24273;SDS011;12392;42.678;23.380;2023-04-03T15:45:50;9.32;;;5.57;;
24273;SDS011;12392;42.678;23.380;2023-04-03T15:48:17;17.15;;;10.18;;
24273;SDS011;12392;42.678;23.380;2023-04-03T15:50:42;9.38;;;6.00;;
24273;SDS011;12392;42.678;23.380;2023-04-03T15:53:08;5.00;;;3.58;;
24273;SDS011;12392;42.678;23.380;2023-04-03T15:55:35;6.85;;;4.18;;
24273;SDS011;12392;42.678;23.380;2023-04-03T15:58:02;4.60;;;3.03;;
24273;SDS011;12392;42.678;23.380;2023-04-03T16:00:28;6.65;;;3.53;;
24273;SDS011;12392;42.678;23.380;2023-04-03T16:02:58;9.85;;;4.07;;
24273;SDS011;12392;42.678;23.380;2023-04-03T16:05:26;6.80;;;4.30;;
24273;SDS011;12392;42.678;23.380;2023-04-03T16:07:52;9.32;;;4.20;;
24273;SDS011;12392;42.678;23.380;2023-04-03T16:10:20;5.35;;;4.07;;
24273;SDS011;12392;42.678;23.380;2023-04-03T16:12:46;9.85;;;5.45;;
24273;SDS011;12392;42.678;23.380;2023-04-03T16:15:11;9.07;;;5.68;;
24273;SDS011;12392;42.678;23.380;2023-04-03T16:17:37;8.60;;;5.88;;
24273;SDS011;12392;42.678;23.380;2023-04-03T16:20:04;9.45;;;6.20;;
24273;SDS011;12392;42.678;23.380;2023-04-03T16:22:31;7.50;;;5.53;;
24273;SDS011;12392;42.678;23.380;2023-04-03T16:24:58;8.18;;;5.30;;
24273;SDS011;12392;42.678;23.380;2023-04-03T16:27:23;10.05;;;6.07;;
24273;SDS011;12392;42.678;23.380;2023-04-03T16:29:56;10.55;;;5.90;;
24273;SDS011;12392;42.678;23.380;2023-04-03T16:32:22;8.73;;;5.35;;
24273;SDS011;12392;42.678;23.380;2023-04-03T16:34:48;7.75;;;5.85;;
24273;SDS011;12392;42.678;23.380;2023-04-03T16:37:15;7.07;;;4.20;;
24273;SDS011;12392;42.678;23.380;2023-04-03T16:39:41;6.25;;;4.40;;
24273;SDS011;12392;42.678;23.380;2023-04-03T16:42:07;7.72;;;4.55;;
24273;SDS011;12392;42.678;23.380;2023-04-03T16:44:34;7.47;;;5.00;;
24273;SDS011;12392;42.678;23.380;2023-04-03T16:47:00;6.38;;;4.15;;
24273;SDS011;12392;42.678;23.380;2023-04-03T16:49:26;9.00;;;4.45;;
24273;SDS011;12392;42.678;23.380;2023-04-03T16:51:57;5.05;;;3.80;;
24273;SDS011;12392;42.678;23.380;2023-04-03T16:54:23;5.50;;;3.92;;
24273;SDS011;12392;42.678;23.380;2023-04-03T16:56:48;3.47;;;3.15;;